Dades meteomassalio
Diari Summary for Gener 25, 2018 Units:  Both    English   Metric
« Previous Day
Next Day »
Diari Semanal Mensual Anual Personalitzat
  Maxima: Minima: Mijana:
Temperatura: TemperatureC °F /  -17.8 °C -0.6 °F /  -18.1 °C 5.8 °F /  -14.6 °C
Rosada: DewpointC °F /  -17.8 °C -1.7 °F /  -18.7 °C 4.2 °F /  -15.4 °C
Humitat: Humidity % 74 % 89 %
Velocitat del vent: WindSpeedKMH mph /  0 km/h - 4.2 mph /  6.8 km/h
Racha vent: WindSpeedGustKMH mph /  0 km/h - -
Vent:- - SSE
Pressio: PressurehPa in /  0 hPa 1018.2 in /  34476.3 hPa -
Pluja: 4.3 in /  109.22 mm    
Historical Graphs
 
 
Tabular Data for Gener 25, 2018
Time Temperature Dew Point Pressure Wind Wind Speed Wind Gust Humidity Rainfall Rate (Hourly) solar Conditions
TemperatureC °F /  -17.8 °C DewpointC °F /  -17.8 °C PressurehPa in /  0 hPa Calm     Humidity % HourlyPrecipMM in /  0 mm SolarRadiationWatts/m^2 W/m2 Conditions
00:03 1.7 °F /  -16.8 °C 0.3 °F /  -17.6 °C 1027.7 in /  34797.9 hPa Calm     91 % 0.0 in /  0 mm 0.0 W/m2 RA
00:08 1.1 °F /  -17.2 °C -0.2 °F /  -17.9 °C 1027.7 in /  34797.9 hPa Calm     91 % 0.0 in /  0 mm 0.0 W/m2 CLR
00:13 1.1 °F /  -17.2 °C -0.2 °F /  -17.9 °C 1027.7 in /  34797.9 hPa Calm     91 % 0.0 in /  0 mm 0.0 W/m2 CLR
00:18 1.1 °F /  -17.2 °C -0.2 °F /  -17.9 °C 1027.7 in /  34797.9 hPa Calm     91 % 0.0 in /  0 mm 0.0 W/m2 CLR
00:23 1.7 °F /  -16.8 °C 0.3 °F /  -17.6 °C 1027.7 in /  34797.9 hPa Calm     91 % 0.0 in /  0 mm 0.0 W/m2 CLR
00:28 1.1 °F /  -17.2 °C -0.2 °F /  -17.9 °C 1027.7 in /  34797.9 hPa Calm     91 % 0.0 in /  0 mm 0.0 W/m2 CLR
00:33 1.1 °F /  -17.2 °C -0.2 °F /  -17.9 °C 1027.7 in /  34797.9 hPa Calm     91 % 0.0 in /  0 mm 0.0 W/m2 CLR
00:38 1.1 °F /  -17.2 °C -0.2 °F /  -17.9 °C 1027.3 in /  34784.4 hPa Calm     91 % 0.0 in /  0 mm 0.0 W/m2 CLR
00:43 1.1 °F /  -17.2 °C -0.2 °F /  -17.9 °C 1027.3 in /  34784.4 hPa Calm     91 % 0.0 in /  0 mm 0.0 W/m2 CLR
00:48 1.1 °F /  -17.2 °C -0.2 °F /  -17.9 °C 1027.3 in /  34784.4 hPa Calm     91 % 0.0 in /  0 mm 0.0 W/m2 CLR
00:53 1.1 °F /  -17.2 °C -0.1 °F /  -17.8 °C 1027.3 in /  34784.4 hPa Calm     92 % 0.0 in /  0 mm 0.0 W/m2 CLR
00:58 1.1 °F /  -17.2 °C -0.1 °F /  -17.8 °C 1027.3 in /  34784.4 hPa Calm     92 % 0.0 in /  0 mm 0.0 W/m2 CLR
01:03 1.1 °F /  -17.2 °C -0.1 °F /  -17.8 °C 1027.3 in /  34784.4 hPa Calm     92 % 0.0 in /  0 mm 0.0 W/m2 CLR
01:08 1.1 °F /  -17.2 °C -0.1 °F /  -17.8 °C 1027.3 in /  34784.4 hPa Calm     92 % 0.0 in /  0 mm 0.0 W/m2 CLR
01:13 0.6 °F /  -17.4 °C -0.7 °F /  -18.2 °C 1027.3 in /  34784.4 hPa Calm     91 % 0.0 in /  0 mm 0.0 W/m2 CLR
01:18 0.6 °F /  -17.4 °C -0.7 °F /  -18.2 °C 1027.0 in /  34774.2 hPa Calm     91 % 0.0 in /  0 mm 0.0 W/m2 CLR
01:23 0.6 °F /  -17.4 °C -0.7 °F /  -18.2 °C 1027.0 in /  34774.2 hPa Calm     91 % 0.0 in /  0 mm 0.0 W/m2 CLR
01:28 0.6 °F /  -17.4 °C -0.7 °F /  -18.2 °C 1027.0 in /  34774.2 hPa Calm     91 % 0.0 in /  0 mm 0.0 W/m2 CLR
01:33 0.6 °F /  -17.4 °C -0.6 °F /  -18.1 °C 1027.0 in /  34774.2 hPa Calm     92 % 0.0 in /  0 mm 0.0 W/m2 CLR
01:38 0.6 °F /  -17.4 °C -0.6 °F /  -18.1 °C 1026.6 in /  34760.7 hPa Calm     92 % 0.0 in /  0 mm 0.0 W/m2 CLR
01:43 0.6 °F /  -17.4 °C -0.6 °F /  -18.1 °C 1026.6 in /  34760.7 hPa Calm     92 % 0.0 in /  0 mm 0.0 W/m2 CLR
01:48 1.1 °F /  -17.2 °C -0.1 °F /  -17.8 °C 1026.6 in /  34760.7 hPa Calm     92 % 0.0 in /  0 mm 0.0 W/m2 CLR
01:53 1.1 °F /  -17.2 °C -0.1 °F /  -17.8 °C 1026.6 in /  34760.7 hPa Calm     92 % 0.0 in /  0 mm 0.0 W/m2 CLR
01:58 1.1 °F /  -17.2 °C -0.1 °F /  -17.8 °C 1026.6 in /  34760.7 hPa Calm     92 % 0.0 in /  0 mm 0.0 W/m2 CLR
02:03 0.6 °F /  -17.4 °C -0.6 °F /  -18.1 °C 1026.6 in /  34760.7 hPa Calm     92 % 0.0 in /  0 mm 0.0 W/m2 CLR
02:08 0.6 °F /  -17.4 °C -0.7 °F /  -18.2 °C 1026.6 in /  34760.7 hPa Calm     91 % 0.0 in /  0 mm 0.0 W/m2 CLR
02:13 0.6 °F /  -17.4 °C -0.7 °F /  -18.2 °C 1026.6 in /  34760.7 hPa Calm     91 % 0.0 in /  0 mm 0.0 W/m2 CLR
02:18 0.6 °F /  -17.4 °C -0.6 °F /  -18.1 °C 1026.6 in /  34760.7 hPa Calm     92 % 0.0 in /  0 mm 0.0 W/m2 CLR
02:23 0.6 °F /  -17.4 °C -0.6 °F /  -18.1 °C 1026.6 in /  34760.7 hPa Calm     92 % 0.0 in /  0 mm 0.0 W/m2 CLR
02:28 1.1 °F /  -17.2 °C -0.1 °F /  -17.8 °C 1026.6 in /  34760.7 hPa Calm     92 % 0.0 in /  0 mm 0.0 W/m2 CLR
02:33 1.1 °F /  -17.2 °C -0.1 °F /  -17.8 °C 1026.6 in /  34760.7 hPa Calm     92 % 0.0 in /  0 mm 0.0 W/m2 CLR
02:38 1.1 °F /  -17.2 °C -0.1 °F /  -17.8 °C 1026.6 in /  34760.7 hPa Calm     92 % 0.0 in /  0 mm 0.0 W/m2 CLR
02:43 1.1 °F /  -17.2 °C -0.1 °F /  -17.8 °C 1026.6 in /  34760.7 hPa Calm     92 % 0.0 in /  0 mm 0.0 W/m2 CLR
02:48 0.6 °F /  -17.4 °C -0.6 °F /  -18.1 °C 1026.6 in /  34760.7 hPa Calm     92 % 0.0 in /  0 mm 0.0 W/m2 CLR
02:53 0.6 °F /  -17.4 °C -0.6 °F /  -18.1 °C 1026.6 in /  34760.7 hPa Calm     92 % 0.0 in /  0 mm 0.0 W/m2 CLR
02:58 1.1 °F /  -17.2 °C -0.1 °F /  -17.8 °C 1026.6 in /  34760.7 hPa Calm     92 % 0.0 in /  0 mm 0.0 W/m2 CLR
03:03 0.6 °F /  -17.4 °C -0.6 °F /  -18.1 °C 1026.6 in /  34760.7 hPa Calm     92 % 0.0 in /  0 mm 0.0 W/m2 CLR
03:08 0.6 °F /  -17.4 °C -0.6 °F /  -18.1 °C 1026.6 in /  34760.7 hPa Calm     92 % 0.0 in /  0 mm 0.0 W/m2 CLR
03:13 0.0 °F /  -17.8 °C -1.2 °F /  -18.4 °C 1026.6 in /  34760.7 hPa Calm     92 % 0.0 in /  0 mm 0.0 W/m2 CLR
03:18 0.0 °F /  -17.8 °C -1.2 °F /  -18.4 °C 1026.3 in /  34750.5 hPa Calm     92 % 0.0 in /  0 mm 0.0 W/m2 CLR
03:23 0.0 °F /  -17.8 °C -1.2 °F /  -18.4 °C 1026.3 in /  34750.5 hPa Calm     92 % 0.0 in /  0 mm 0.0 W/m2 CLR
03:28 0.0 °F /  -17.8 °C -1.2 °F /  -18.4 °C 1026.3 in /  34750.5 hPa Calm     92 % 0.0 in /  0 mm 0.0 W/m2 CLR
03:33 0.0 °F /  -17.8 °C -1.2 °F /  -18.4 °C 1026.3 in /  34750.5 hPa Calm     92 % 0.0 in /  0 mm 0.0 W/m2 CLR
03:38 0.0 °F /  -17.8 °C -1.2 °F /  -18.4 °C 1026.3 in /  34750.5 hPa Calm     92 % 0.0 in /  0 mm 0.0 W/m2 CLR
03:43 0.0 °F /  -17.8 °C -1.2 °F /  -18.4 °C 1026.3 in /  34750.5 hPa Calm     92 % 0.0 in /  0 mm 0.0 W/m2 CLR
03:48 -0.6 °F /  -18.1 °C -1.6 °F /  -18.7 °C 1026.3 in /  34750.5 hPa Calm     93 % 0.0 in /  0 mm 0.0 W/m2 CLR
03:54 -0.6 °F /  -18.1 °C -1.7 °F /  -18.7 °C 1026.3 in /  34750.5 hPa Calm     92 % 0.0 in /  0 mm 0.0 W/m2 CLR
03:59 -0.6 °F /  -18.1 °C -1.7 °F /  -18.7 °C 1026.0 in /  34740.4 hPa Calm     92 % 0.0 in /  0 mm 0.0 W/m2 CLR
04:04 -0.6 °F /  -18.1 °C -1.7 °F /  -18.7 °C 1026.0 in /  34740.4 hPa Calm     92 % 0.0 in /  0 mm 0.0 W/m2 CLR
04:09 -0.6 °F /  -18.1 °C -1.7 °F /  -18.7 °C 1026.0 in /  34740.4 hPa Calm     92 % 0.0 in /  0 mm 0.0 W/m2 CLR
04:14 -0.6 °F /  -18.1 °C -1.7 °F /  -18.7 °C 1026.0 in /  34740.4 hPa Calm     92 % 0.0 in /  0 mm 0.0 W/m2 CLR
04:19 0.0 °F /  -17.8 °C -1.2 °F /  -18.4 °C 1025.6 in /  34726.8 hPa Calm     92 % 0.0 in /  0 mm 0.0 W/m2 CLR
04:24 0.0 °F /  -17.8 °C -1.2 °F /  -18.4 °C 1025.6 in /  34726.8 hPa Calm     92 % 0.0 in /  0 mm 0.0 W/m2 CLR
04:29 0.0 °F /  -17.8 °C -1.0 °F /  -18.3 °C 1025.6 in /  34726.8 hPa Calm     93 % 0.0 in /  0 mm 0.0 W/m2 CLR
04:34 0.0 °F /  -17.8 °C -1.0 °F /  -18.3 °C 1025.6 in /  34726.8 hPa Calm     93 % 0.0 in /  0 mm 0.0 W/m2 CLR
04:39 0.0 °F /  -17.8 °C -1.0 °F /  -18.3 °C 1025.6 in /  34726.8 hPa Calm     93 % 0.0 in /  0 mm 0.0 W/m2 CLR
04:44 0.0 °F /  -17.8 °C -1.0 °F /  -18.3 °C 1025.6 in /  34726.8 hPa Calm     93 % 0.0 in /  0 mm 0.0 W/m2 CLR
04:49 0.0 °F /  -17.8 °C -1.2 °F /  -18.4 °C 1025.3 in /  34716.7 hPa Calm     92 % 0.0 in /  0 mm 0.0 W/m2 CLR
04:54 0.0 °F /  -17.8 °C -1.2 °F /  -18.4 °C 1025.3 in /  34716.7 hPa Calm     92 % 0.0 in /  0 mm 0.0 W/m2 CLR
04:59 0.0 °F /  -17.8 °C -1.2 °F /  -18.4 °C 1025.3 in /  34716.7 hPa Calm     92 % 0.0 in /  0 mm 0.0 W/m2 CLR
05:04 0.0 °F /  -17.8 °C -1.0 °F /  -18.3 °C 1025.3 in /  34716.7 hPa Calm     93 % 0.0 in /  0 mm 0.0 W/m2 CLR
05:09 0.0 °F /  -17.8 °C -1.0 °F /  -18.3 °C 1025.3 in /  34716.7 hPa Calm     93 % 0.0 in /  0 mm 0.0 W/m2 CLR
05:14 0.0 °F /  -17.8 °C -1.0 °F /  -18.3 °C 1025.3 in /  34716.7 hPa Calm     93 % 0.0 in /  0 mm 0.0 W/m2 CLR
05:19 0.0 °F /  -17.8 °C -1.0 °F /  -18.3 °C 1025.3 in /  34716.7 hPa Calm     93 % 0.0 in /  0 mm 0.0 W/m2 CLR
05:24 0.0 °F /  -17.8 °C -1.0 °F /  -18.3 °C 1025.3 in /  34716.7 hPa Calm     93 % 0.0 in /  0 mm 0.0 W/m2 CLR
05:29 0.0 °F /  -17.8 °C -1.0 °F /  -18.3 °C 1025.3 in /  34716.7 hPa Calm     93 % 0.0 in /  0 mm 0.0 W/m2 CLR
05:34 0.0 °F /  -17.8 °C -1.0 °F /  -18.3 °C 1024.9 in /  34703.1 hPa Calm     93 % 0.0 in /  0 mm 0.0 W/m2 CLR
05:39 0.0 °F /  -17.8 °C -1.0 °F /  -18.3 °C 1024.9 in /  34703.1 hPa Calm     93 % 0.0 in /  0 mm 0.0 W/m2 CLR
05:44 0.0 °F /  -17.8 °C -1.0 °F /  -18.3 °C 1024.9 in /  34703.1 hPa Calm     93 % 0.0 in /  0 mm 0.0 W/m2 CLR
05:49 0.6 °F /  -17.4 °C -0.4 °F /  -18 °C 1025.3 in /  34716.7 hPa Calm     93 % 0.0 in /  0 mm 0.0 W/m2 CLR
05:54 1.1 °F /  -17.2 °C 0.1 °F /  -17.7 °C 1024.9 in /  34703.1 hPa Calm     93 % 0.0 in /  0 mm 0.0 W/m2 CLR
05:59 1.1 °F /  -17.2 °C 0.1 °F /  -17.7 °C 1024.9 in /  34703.1 hPa Calm     93 % 0.3 in /  7.62 mm 0.0 W/m2 RA
06:04 1.1 °F /  -17.2 °C 0.1 °F /  -17.7 °C 1024.9 in /  34703.1 hPa Calm     93 % 0.3 in /  7.62 mm 0.0 W/m2
06:09 1.1 °F /  -17.2 °C 0.1 °F /  -17.7 °C 1024.9 in /  34703.1 hPa Calm     93 % 0.3 in /  7.62 mm 0.0 W/m2 CLR
06:14 1.1 °F /  -17.2 °C 0.1 °F /  -17.7 °C 1024.9 in /  34703.1 hPa Calm     93 % 0.3 in /  7.62 mm 0.0 W/m2 CLR
06:19 1.1 °F /  -17.2 °C 0.1 °F /  -17.7 °C 1024.9 in /  34703.1 hPa Calm     93 % 0.3 in /  7.62 mm 0.0 W/m2 CLR
06:24 1.1 °F /  -17.2 °C 0.1 °F /  -17.7 °C 1024.9 in /  34703.1 hPa Calm     93 % 0.3 in /  7.62 mm 0.0 W/m2 CLR
06:29 1.1 °F /  -17.2 °C 0.1 °F /  -17.7 °C 1024.6 in /  34693 hPa Calm     93 % 0.3 in /  7.62 mm 0.0 W/m2 CLR
06:34 0.6 °F /  -17.4 °C -0.4 °F /  -18 °C 1024.9 in /  34703.1 hPa Calm     93 % 0.3 in /  7.62 mm 0.0 W/m2 CLR
06:39 0.6 °F /  -17.4 °C -0.4 °F /  -18 °C 1024.9 in /  34703.1 hPa Calm     93 % 0.3 in /  7.62 mm 0.0 W/m2 CLR
06:44 0.6 °F /  -17.4 °C -0.4 °F /  -18 °C 1024.9 in /  34703.1 hPa Calm     93 % 0.3 in /  7.62 mm 0.0 W/m2 CLR
06:49 0.0 °F /  -17.8 °C -1.0 °F /  -18.3 °C 1024.9 in /  34703.1 hPa Calm     93 % 0.3 in /  7.62 mm 0.0 W/m2 CLR
06:54 0.6 °F /  -17.4 °C -0.4 °F /  -18 °C 1024.9 in /  34703.1 hPa Calm     93 % 0.3 in /  7.62 mm 0.0 W/m2 CLR
06:59 0.6 °F /  -17.4 °C -0.4 °F /  -18 °C 1024.9 in /  34703.1 hPa Calm     93 % 0.0 in /  0 mm 0.0 W/m2 CLR
07:04 0.0 °F /  -17.8 °C -1.0 °F /  -18.3 °C 1024.6 in /  34693 hPa Calm     93 % 0.0 in /  0 mm 0.0 W/m2 CLR
07:09 0.0 °F /  -17.8 °C -1.0 °F /  -18.3 °C 1024.6 in /  34693 hPa Calm     93 % 0.0 in /  0 mm 0.0 W/m2 CLR
07:14 0.0 °F /  -17.8 °C -1.0 °F /  -18.3 °C 1024.6 in /  34693 hPa Calm     93 % 0.0 in /  0 mm 0.0 W/m2 CLR
07:19 0.0 °F /  -17.8 °C -1.0 °F /  -18.3 °C 1024.6 in /  34693 hPa Calm     93 % 0.0 in /  0 mm 0.0 W/m2 CLR
07:24 0.0 °F /  -17.8 °C -1.0 °F /  -18.3 °C 1024.6 in /  34693 hPa Calm     93 % 0.0 in /  0 mm 0.0 W/m2 CLR
07:29 0.0 °F /  -17.8 °C -1.0 °F /  -18.3 °C 1024.6 in /  34693 hPa Calm     93 % 0.0 in /  0 mm 0.0 W/m2 CLR
07:34 0.0 °F /  -17.8 °C -1.0 °F /  -18.3 °C 1024.6 in /  34693 hPa Calm     93 % 0.0 in /  0 mm 0.0 W/m2 CLR
07:39 0.0 °F /  -17.8 °C -1.0 °F /  -18.3 °C 1024.6 in /  34693 hPa Calm     93 % 0.0 in /  0 mm 0.0 W/m2 CLR
07:44 0.0 °F /  -17.8 °C -1.0 °F /  -18.3 °C 1024.6 in /  34693 hPa Calm     93 % 0.0 in /  0 mm 0.0 W/m2 CLR
07:49 0.0 °F /  -17.8 °C -1.0 °F /  -18.3 °C 1024.6 in /  34693 hPa Calm     93 % 0.0 in /  0 mm 0.0 W/m2 CLR
07:54 0.0 °F /  -17.8 °C -1.0 °F /  -18.3 °C 1024.6 in /  34693 hPa Calm     93 % 0.0 in /  0 mm 0.0 W/m2 CLR
07:59 0.0 °F /  -17.8 °C -1.0 °F /  -18.3 °C 1024.6 in /  34693 hPa Calm     93 % 0.0 in /  0 mm 0.0 W/m2 CLR
08:04 0.0 °F /  -17.8 °C -1.0 °F /  -18.3 °C 1024.6 in /  34693 hPa Calm     93 % 0.0 in /  0 mm 0.0 W/m2 CLR
08:09 0.0 °F /  -17.8 °C -1.0 °F /  -18.3 °C 1024.6 in /  34693 hPa Calm     93 % 0.0 in /  0 mm 0.0 W/m2 OVC
08:14 0.0 °F /  -17.8 °C -1.0 °F /  -18.3 °C 1024.6 in /  34693 hPa Calm     93 % 0.0 in /  0 mm 0.0 W/m2 OVC
08:19 0.0 °F /  -17.8 °C -1.0 °F /  -18.3 °C 1024.6 in /  34693 hPa Calm     93 % 0.0 in /  0 mm 5.0 W/m2 OVC
08:24 0.0 °F /  -17.8 °C -1.0 °F /  -18.3 °C 1024.3 in /  34682.8 hPa Calm     93 % 0.0 in /  0 mm 9.0 W/m2 BKN
08:29 0.0 °F /  -17.8 °C -1.0 °F /  -18.3 °C 1024.6 in /  34693 hPa Calm     93 % 0.0 in /  0 mm 14.0 W/m2 BKN
08:34 0.0 °F /  -17.8 °C -1.0 °F /  -18.3 °C 1024.6 in /  34693 hPa Calm     93 % 0.0 in /  0 mm 19.0 W/m2 BKN
08:39 0.0 °F /  -17.8 °C -1.0 °F /  -18.3 °C 1024.6 in /  34693 hPa Calm     93 % 0.0 in /  0 mm 30.0 W/m2 BKN
08:44 0.0 °F /  -17.8 °C -1.0 °F /  -18.3 °C 1024.3 in /  34682.8 hPa Calm     93 % 0.0 in /  0 mm 39.0 W/m2 BKN
08:49 0.0 °F /  -17.8 °C -1.0 °F /  -18.3 °C 1024.3 in /  34682.8 hPa Calm     93 % 0.0 in /  0 mm 46.0 W/m2 BKN
08:54 0.0 °F /  -17.8 °C -1.0 °F /  -18.3 °C 1024.3 in /  34682.8 hPa Calm     93 % 0.0 in /  0 mm 47.0 W/m2 SCT
08:59 0.6 °F /  -17.4 °C -0.4 °F /  -18 °C 1024.3 in /  34682.8 hPa Calm     93 % 0.0 in /  0 mm 44.0 W/m2 BKN
09:04 0.6 °F /  -17.4 °C -0.4 °F /  -18 °C 1024.3 in /  34682.8 hPa Calm     93 % 0.0 in /  0 mm 49.0 W/m2 SCT
09:09 0.6 °F /  -17.4 °C -0.4 °F /  -18 °C 1024.3 in /  34682.8 hPa Calm     93 % 0.0 in /  0 mm 56.0 W/m2 SCT
09:14 0.6 °F /  -17.4 °C -0.4 °F /  -18 °C 1024.3 in /  34682.8 hPa Calm     93 % 0.0 in /  0 mm 65.0 W/m2 SCT
09:19 0.6 °F /  -17.4 °C -0.4 °F /  -18 °C 1024.3 in /  34682.8 hPa Calm     93 % 0.0 in /  0 mm 72.0 W/m2 SCT
09:24 1.1 °F /  -17.2 °C 0.3 °F /  -17.6 °C 1024.3 in /  34682.8 hPa Calm     94 % 0.0 in /  0 mm 77.0 W/m2 FEW
09:29 1.1 °F /  -17.2 °C 0.3 °F /  -17.6 °C 1024.3 in /  34682.8 hPa Calm     94 % 0.0 in /  0 mm 79.0 W/m2 FEW
09:34 1.1 °F /  -17.2 °C 0.1 °F /  -17.7 °C 1024.3 in /  34682.8 hPa Calm     93 % 0.0 in /  0 mm 79.0 W/m2 FEW
09:39 1.7 °F /  -16.8 °C 0.8 °F /  -17.3 °C 1024.3 in /  34682.8 hPa Calm     94 % 0.0 in /  0 mm 81.0 W/m2 FEW
09:45 1.7 °F /  -16.8 °C 0.8 °F /  -17.3 °C 1024.3 in /  34682.8 hPa Calm     94 % 0.0 in /  0 mm 93.0 W/m2 FEW
09:50 1.7 °F /  -16.8 °C 0.8 °F /  -17.3 °C 1024.3 in /  34682.8 hPa Calm     94 % 0.0 in /  0 mm 100.0 W/m2 CLR
09:55 2.2 °F /  -16.6 °C 1.2 °F /  -17.1 °C 1023.9 in /  34669.3 hPa Calm     93 % 0.0 in /  0 mm 109.0 W/m2 CLR
10:00 2.2 °F /  -16.6 °C 1.3 °F /  -17.1 °C 1024.3 in /  34682.8 hPa Calm     94 % 0.0 in /  0 mm 105.0 W/m2 CLR
10:05 2.2 °F /  -16.6 °C 1.3 °F /  -17.1 °C 1024.3 in /  34682.8 hPa Calm     94 % 0.0 in /  0 mm 102.0 W/m2 CLR
10:10 2.8 °F /  -16.2 °C 1.9 °F /  -16.7 °C 1023.9 in /  34669.3 hPa Calm     94 % 0.0 in /  0 mm 102.0 W/m2 CLR
10:15 2.8 °F /  -16.2 °C 1.9 °F /  -16.7 °C 1023.9 in /  34669.3 hPa Calm     94 % 0.0 in /  0 mm 102.0 W/m2 CLR
10:20 2.8 °F /  -16.2 °C 1.9 °F /  -16.7 °C 1023.9 in /  34669.3 hPa Calm     94 % 0.0 in /  0 mm 114.0 W/m2 CLR
10:25 3.3 °F /  -15.9 °C 2.4 °F /  -16.4 °C 1023.9 in /  34669.3 hPa Calm     94 % 0.0 in /  0 mm 120.0 W/m2 CLR
10:30 3.9 °F /  -15.6 °C 3.0 °F /  -16.1 °C 1023.9 in /  34669.3 hPa Calm     94 % 0.0 in /  0 mm 128.0 W/m2 CLR
10:35 3.9 °F /  -15.6 °C 3.0 °F /  -16.1 °C 1023.9 in /  34669.3 hPa Calm     94 % 0.0 in /  0 mm 116.0 W/m2 CLR
10:40 3.9 °F /  -15.6 °C 3.0 °F /  -16.1 °C 1023.9 in /  34669.3 hPa Calm     94 % 0.0 in /  0 mm 114.0 W/m2 CLR
10:45 4.4 °F /  -15.3 °C 3.6 °F /  -15.8 °C 1023.6 in /  34659.1 hPa Calm     94 % 0.0 in /  0 mm 148.0 W/m2 CLR
10:50 4.4 °F /  -15.3 °C 3.6 °F /  -15.8 °C 1023.6 in /  34659.1 hPa Calm     94 % 0.0 in /  0 mm 202.0 W/m2 CLR
10:55 4.4 °F /  -15.3 °C 3.6 °F /  -15.8 °C 1023.6 in /  34659.1 hPa Calm     94 % 0.0 in /  0 mm 211.0 W/m2 CLR
11:00 5.0 °F /  -15 °C 4.1 °F /  -15.5 °C 1023.6 in /  34659.1 hPa Calm     94 % 0.0 in /  0 mm 218.0 W/m2 CLR
11:05 5.0 °F /  -15 °C 4.1 °F /  -15.5 °C 1023.6 in /  34659.1 hPa Calm     94 % 0.0 in /  0 mm 223.0 W/m2 CLR
11:10 5.6 °F /  -14.7 °C 4.7 °F /  -15.2 °C 1023.6 in /  34659.1 hPa Calm     94 % 0.0 in /  0 mm 357.0 W/m2 CLR
11:15 6.1 °F /  -14.4 °C 5.2 °F /  -14.9 °C 1023.2 in /  34645.6 hPa Calm     94 % 0.0 in /  0 mm 281.0 W/m2 CLR
11:20 6.1 °F /  -14.4 °C 5.2 °F /  -14.9 °C 1023.6 in /  34659.1 hPa Calm     94 % 0.0 in /  0 mm 413.0 W/m2 CLR
11:25 6.7 °F /  -14.1 °C 5.8 °F /  -14.6 °C 1023.2 in /  34645.6 hPa Calm     94 % 0.0 in /  0 mm 411.0 W/m2 CLR
11:30 6.7 °F /  -14.1 °C 5.8 °F /  -14.6 °C 1023.2 in /  34645.6 hPa Calm     94 % 0.0 in /  0 mm 338.0 W/m2 CLR
11:35 7.2 °F /  -13.8 °C 6.3 °F /  -14.3 °C 1023.2 in /  34645.6 hPa Calm     94 % 0.0 in /  0 mm 606.0 W/m2 CLR
11:40 7.8 °F /  -13.4 °C 6.9 °F /  -13.9 °C 1023.2 in /  34645.6 hPa Calm     94 % 0.0 in /  0 mm 548.0 W/m2 CLR
11:45 8.3 °F /  -13.2 °C 7.4 °F /  -13.7 °C 1022.9 in /  34635.4 hPa Calm     94 % 0.0 in /  0 mm 543.0 W/m2 CLR
11:50 8.3 °F /  -13.2 °C 7.4 °F /  -13.7 °C 1022.9 in /  34635.4 hPa Calm     94 % 0.0 in /  0 mm 399.0 W/m2 CLR
11:55 8.9 °F /  -12.8 °C 8.0 °F /  -13.3 °C 1022.9 in /  34635.4 hPa Calm     94 % 0.0 in /  0 mm 316.0 W/m2 CLR
12:00 8.9 °F /  -12.8 °C 8.0 °F /  -13.3 °C 1022.9 in /  34635.4 hPa NE 4.8 mph /  7.7 km/h 4.8 mph /  7.7 km/h 94 % 0.0 in /  0 mm 276.0 W/m2 CLR
12:05 8.9 °F /  -12.8 °C 7.8 °F /  -13.4 °C 1022.6 in /  34625.2 hPa Calm     93 % 0.0 in /  0 mm 341.0 W/m2 CLR
12:10 8.9 °F /  -12.8 °C 7.8 °F /  -13.4 °C 1022.6 in /  34625.2 hPa ENE 3.7 mph /  6 km/h 3.7 mph /  6 km/h 93 % 0.0 in /  0 mm 441.0 W/m2 CLR
12:15 9.4 °F /  -12.6 °C 8.4 °F /  -13.1 °C 1022.6 in /  34625.2 hPa Calm     93 % 0.0 in /  0 mm 445.0 W/m2 CLR
12:20 9.4 °F /  -12.6 °C 8.4 °F /  -13.1 °C 1022.2 in /  34611.7 hPa ENE 5.6 mph /  9 km/h 5.6 mph /  9 km/h 93 % 0.0 in /  0 mm 454.0 W/m2 CLR
12:25 9.4 °F /  -12.6 °C 8.2 °F /  -13.2 °C 1022.2 in /  34611.7 hPa East 5.6 mph /  9 km/h 5.6 mph /  9 km/h 92 % 0.0 in /  0 mm 443.0 W/m2 CLR
12:30 9.4 °F /  -12.6 °C 8.1 °F /  -13.3 °C 1021.9 in /  34601.5 hPa East 3.7 mph /  6 km/h 3.7 mph /  6 km/h 91 % 0.0 in /  0 mm 345.0 W/m2 CLR
12:35 10.0 °F /  -12.2 °C 8.6 °F /  -13 °C 1021.9 in /  34601.5 hPa ENE 5.6 mph /  9 km/h 5.6 mph /  9 km/h 91 % 0.0 in /  0 mm 341.0 W/m2 CLR
12:40 10.0 °F /  -12.2 °C 8.4 °F /  -13.1 °C 1021.6 in /  34591.4 hPa Calm     90 % 0.0 in /  0 mm 388.0 W/m2 CLR
12:45 10.6 °F /  -11.9 °C 9.0 °F /  -12.8 °C 1021.6 in /  34591.4 hPa Calm     90 % 0.0 in /  0 mm 390.0 W/m2 CLR
12:50 10.6 °F /  -11.9 °C 8.8 °F /  -12.9 °C 1021.6 in /  34591.4 hPa NE 1.9 mph /  3.1 km/h 1.9 mph /  3.1 km/h 89 % 0.0 in /  0 mm 413.0 W/m2 CLR
12:55 10.6 °F /  -11.9 °C 8.8 °F /  -12.9 °C 1021.6 in /  34591.4 hPa ENE 1.9 mph /  3.1 km/h 1.9 mph /  3.1 km/h 89 % 0.0 in /  0 mm 454.0 W/m2 CLR
13:00 11.1 °F /  -11.6 °C 9.1 °F /  -12.7 °C 1021.6 in /  34591.4 hPa NE 7.4 mph /  11.9 km/h 7.4 mph /  11.9 km/h 87 % 0.0 in /  0 mm 336.0 W/m2 CLR
13:05 11.1 °F /  -11.6 °C 8.8 °F /  -12.9 °C 1021.2 in /  34577.8 hPa NE 3.7 mph /  6 km/h 3.7 mph /  6 km/h 86 % 0.0 in /  0 mm 471.0 W/m2 CLR
13:10 11.7 °F /  -11.3 °C 9.4 °F /  -12.6 °C 1021.2 in /  34577.8 hPa ENE 5.6 mph /  9 km/h 5.6 mph /  9 km/h 86 % 0.0 in /  0 mm 418.0 W/m2 CLR
13:15 11.7 °F /  -11.3 °C 9.1 °F /  -12.7 °C 1020.9 in /  34567.7 hPa NE 3.7 mph /  6 km/h 3.7 mph /  6 km/h 84 % 0.0 in /  0 mm 369.0 W/m2 CLR
13:20 11.7 °F /  -11.3 °C 9.1 °F /  -12.7 °C 1020.9 in /  34567.7 hPa ENE 5.6 mph /  9 km/h 5.6 mph /  9 km/h 84 % 0.0 in /  0 mm 329.0 W/m2 CLR
13:25 11.7 °F /  -11.3 °C 8.9 °F /  -12.8 °C 1020.9 in /  34567.7 hPa ENE 12.9 mph /  20.8 km/h 12.9 mph /  20.8 km/h 83 % 0.0 in /  0 mm 313.0 W/m2 CLR
13:30 11.7 °F /  -11.3 °C 8.9 °F /  -12.8 °C 1020.9 in /  34567.7 hPa NE 7.4 mph /  11.9 km/h 7.4 mph /  11.9 km/h 83 % 0.0 in /  0 mm 353.0 W/m2 CLR
13:35 11.7 °F /  -11.3 °C 9.1 °F /  -12.7 °C 1020.5 in /  34554.1 hPa Calm     84 % 0.0 in /  0 mm 367.0 W/m2 CLR
13:40 11.7 °F /  -11.3 °C 8.9 °F /  -12.8 °C 1020.5 in /  34554.1 hPa ENE 6.4 mph /  10.3 km/h 6.4 mph /  10.3 km/h 83 % 0.0 in /  0 mm 380.0 W/m2 CLR
13:45 11.7 °F /  -11.3 °C 8.9 °F /  -12.8 °C 1020.5 in /  34554.1 hPa East 9.3 mph /  15 km/h 9.3 mph /  15 km/h 83 % 0.0 in /  0 mm 332.0 W/m2 CLR
13:50 11.7 °F /  -11.3 °C 8.7 °F /  -12.9 °C 1020.2 in /  34544 hPa ENE 5.6 mph /  9 km/h 5.6 mph /  9 km/h 82 % 0.0 in /  0 mm 281.0 W/m2 CLR
13:56 11.7 °F /  -11.3 °C 8.7 °F /  -12.9 °C 1020.2 in /  34544 hPa ENE 9.3 mph /  15 km/h 9.3 mph /  15 km/h 82 % 0.0 in /  0 mm 313.0 W/m2 CLR
14:01 11.1 °F /  -11.6 °C 8.2 °F /  -13.2 °C 1019.9 in /  34533.8 hPa East 13.0 mph /  20.9 km/h 13.0 mph /  20.9 km/h 82 % 0.0 in /  0 mm 301.0 W/m2 CLR
14:06 11.1 °F /  -11.6 °C 8.3 °F /  -13.2 °C 1019.9 in /  34533.8 hPa ENE 6.4 mph /  10.3 km/h 9.5 mph /  15.3 km/h 83 % 0.0 in /  0 mm 341.0 W/m2 CLR
14:11 11.7 °F /  -11.3 °C 8.9 °F /  -12.8 °C 1019.9 in /  34533.8 hPa East 7.4 mph /  11.9 km/h 7.4 mph /  11.9 km/h 83 % 0.0 in /  0 mm 345.0 W/m2 CLR
14:16 11.7 °F /  -11.3 °C 8.7 °F /  -12.9 °C 1019.5 in /  34520.3 hPa ENE 7.4 mph /  11.9 km/h 7.4 mph /  11.9 km/h 82 % 0.0 in /  0 mm 294.0 W/m2 CLR
14:21 11.7 °F /  -11.3 °C 8.9 °F /  -12.8 °C 1019.5 in /  34520.3 hPa ENE 5.6 mph /  9 km/h   83 % 0.0 in /  0 mm 304.0 W/m2 CLR
14:26 11.7 °F /  -11.3 °C 8.7 °F /  -12.9 °C 1019.5 in /  34520.3 hPa ENE 9.7 mph /  15.6 km/h 9.7 mph /  15.6 km/h 82 % 0.0 in /  0 mm 258.0 W/m2 CLR
14:31 11.7 °F /  -11.3 °C 8.7 °F /  -12.9 °C 1019.5 in /  34520.3 hPa ENE 9.3 mph /  15 km/h 9.3 mph /  15 km/h 82 % 0.0 in /  0 mm 260.0 W/m2 CLR
14:36 11.7 °F /  -11.3 °C 8.7 °F /  -12.9 °C 1019.5 in /  34520.3 hPa NE 3.7 mph /  6 km/h   82 % 0.0 in /  0 mm 378.0 W/m2 CLR
14:41 12.2 °F /  -11 °C 9.2 °F /  -12.7 °C 1019.2 in /  34510.1 hPa ENE 3.7 mph /  6 km/h 3.9 mph /  6.3 km/h 82 % 0.0 in /  0 mm 334.0 W/m2 CLR
14:46 12.2 °F /  -11 °C 9.1 °F /  -12.7 °C 1019.2 in /  34510.1 hPa East 7.4 mph /  11.9 km/h 7.4 mph /  11.9 km/h 81 % 0.0 in /  0 mm 436.0 W/m2 CLR
14:51 12.8 °F /  -10.7 °C 9.6 °F /  -12.4 °C 1019.2 in /  34510.1 hPa ENE 9.7 mph /  15.6 km/h 9.7 mph /  15.6 km/h 81 % 0.0 in /  0 mm 325.0 W/m2 CLR
14:56 12.8 °F /  -10.7 °C 9.4 °F /  -12.6 °C 1019.2 in /  34510.1 hPa ENE 13.0 mph /  20.9 km/h 13.0 mph /  20.9 km/h 80 % 0.0 in /  0 mm 420.0 W/m2 CLR
15:01 12.8 °F /  -10.7 °C 9.4 °F /  -12.6 °C 1019.2 in /  34510.1 hPa NE 14.8 mph /  23.8 km/h 14.8 mph /  23.8 km/h 80 % 0.0 in /  0 mm 374.0 W/m2 CLR
15:06 13.3 °F /  -10.4 °C 9.8 °F /  -12.3 °C 1018.8 in /  34496.6 hPa ENE 9.3 mph /  15 km/h 9.3 mph /  15 km/h 79 % 0.0 in /  0 mm 427.0 W/m2 CLR
15:11 13.3 °F /  -10.4 °C 9.8 °F /  -12.3 °C 1018.8 in /  34496.6 hPa NNE 5.6 mph /  9 km/h 5.6 mph /  9 km/h 79 % 0.0 in /  0 mm 446.0 W/m2 CLR
15:16 13.3 °F /  -10.4 °C 9.8 °F /  -12.3 °C 1018.8 in /  34496.6 hPa Calm     79 % 0.0 in /  0 mm 292.0 W/m2 CLR
15:21 13.9 °F /  -10.1 °C 10.1 °F /  -12.2 °C 1018.8 in /  34496.6 hPa NE 9.3 mph /  15 km/h 9.3 mph /  15 km/h 78 % 0.0 in /  0 mm 353.0 W/m2 CLR
15:26 13.3 °F /  -10.4 °C 9.6 °F /  -12.4 °C 1018.8 in /  34496.6 hPa Calm     78 % 0.0 in /  0 mm 355.0 W/m2 CLR
15:31 13.3 °F /  -10.4 °C 9.2 °F /  -12.7 °C 1018.5 in /  34486.4 hPa Calm     76 % 0.0 in /  0 mm 229.0 W/m2 CLR
15:36 13.3 °F /  -10.4 °C 9.4 °F /  -12.6 °C 1018.5 in /  34486.4 hPa East 7.4 mph /  11.9 km/h 7.4 mph /  11.9 km/h 77 % 0.0 in /  0 mm 255.0 W/m2 CLR
15:41 13.9 °F /  -10.1 °C 9.7 °F /  -12.4 °C 1018.5 in /  34486.4 hPa NE 7.4 mph /  11.9 km/h 7.4 mph /  11.9 km/h 76 % 0.0 in /  0 mm 214.0 W/m2 CLR
15:46 13.3 °F /  -10.4 °C 9.4 °F /  -12.6 °C 1018.5 in /  34486.4 hPa ENE 5.6 mph /  9 km/h 5.6 mph /  9 km/h 77 % 0.0 in /  0 mm 362.0 W/m2 CLR
15:51 13.9 °F /  -10.1 °C 9.9 °F /  -12.3 °C 1018.5 in /  34486.4 hPa ESE 5.6 mph /  9 km/h 5.6 mph /  9 km/h 77 % 0.0 in /  0 mm 343.0 W/m2 CLR
15:56 14.4 °F /  -9.8 °C 10.1 °F /  -12.2 °C 1018.2 in /  34476.3 hPa ESE 14.8 mph /  23.8 km/h 14.8 mph /  23.8 km/h 75 % 0.0 in /  0 mm 225.0 W/m2 CLR
16:01 13.9 °F /  -10.1 °C 9.3 °F /  -12.6 °C 1018.2 in /  34476.3 hPa ESE 11.1 mph /  17.9 km/h 11.1 mph /  17.9 km/h 74 % 0.0 in /  0 mm 227.0 W/m2 CLR
16:06 13.9 °F /  -10.1 °C 9.3 °F /  -12.6 °C 1018.2 in /  34476.3 hPa East 14.8 mph /  23.8 km/h 14.8 mph /  23.8 km/h 74 % 0.0 in /  0 mm 302.0 W/m2 CLR
16:11 13.9 °F /  -10.1 °C 9.3 °F /  -12.6 °C 1018.2 in /  34476.3 hPa ESE 9.3 mph /  15 km/h 9.3 mph /  15 km/h 74 % 0.0 in /  0 mm 207.0 W/m2 CLR
16:16 13.9 °F /  -10.1 °C 9.3 °F /  -12.6 °C 1018.2 in /  34476.3 hPa ENE 9.3 mph /  15 km/h 9.3 mph /  15 km/h 74 % 0.0 in /  0 mm 223.0 W/m2 CLR
16:21 13.9 °F /  -10.1 °C 9.3 °F /  -12.6 °C 1018.5 in /  34486.4 hPa NE 18.5 mph /  29.8 km/h 18.5 mph /  29.8 km/h 74 % 0.0 in /  0 mm 134.0 W/m2 CLR
16:26 13.9 °F /  -10.1 °C 9.6 °F /  -12.4 °C 1018.5 in /  34486.4 hPa NE 18.5 mph /  29.8 km/h 18.5 mph /  29.8 km/h 75 % 0.0 in /  0 mm 107.0 W/m2 CLR
16:31 13.3 °F /  -10.4 °C 9.0 °F /  -12.8 °C 1018.2 in /  34476.3 hPa NE 5.6 mph /  9 km/h 5.6 mph /  9 km/h 75 % 0.0 in /  0 mm 111.0 W/m2 CLR
16:36 13.3 °F /  -10.4 °C 9.2 °F /  -12.7 °C 1018.5 in /  34486.4 hPa NNE 9.3 mph /  15 km/h 9.3 mph /  15 km/h 76 % 0.0 in /  0 mm 109.0 W/m2 CLR
16:41 12.8 °F /  -10.7 °C 8.8 °F /  -12.9 °C 1018.5 in /  34486.4 hPa North 14.8 mph /  23.8 km/h 14.8 mph /  23.8 km/h 77 % 0.0 in /  0 mm 95.0 W/m2 CLR
16:46 12.8 °F /  -10.7 °C 9.2 °F /  -12.7 °C 1018.5 in /  34486.4 hPa NNE 18.5 mph /  29.8 km/h 18.5 mph /  29.8 km/h 79 % 0.0 in /  0 mm 91.0 W/m2 CLR
16:51 12.2 °F /  -11 °C 8.9 °F /  -12.8 °C 1018.5 in /  34486.4 hPa NNE 19.3 mph /  31.1 km/h 19.3 mph /  31.1 km/h 80 % 0.0 in /  0 mm 86.0 W/m2 CLR
16:56 11.7 °F /  -11.3 °C 8.7 °F /  -12.9 °C 1018.5 in /  34486.4 hPa North 14.8 mph /  23.8 km/h 14.8 mph /  23.8 km/h 82 % 0.0 in /  0 mm 79.0 W/m2 CLR
17:01 11.7 °F /  -11.3 °C 8.7 °F /  -12.9 °C 1018.5 in /  34486.4 hPa NNE 16.7 mph /  26.9 km/h 16.7 mph /  26.9 km/h 82 % 0.0 in /  0 mm 72.0 W/m2 FEW
17:06 11.1 °F /  -11.6 °C 8.3 °F /  -13.2 °C 1018.5 in /  34486.4 hPa Calm     83 % 0.0 in /  0 mm 67.0 W/m2 FEW
17:11 11.1 °F /  -11.6 °C 8.5 °F /  -13.1 °C 1018.5 in /  34486.4 hPa Calm     84 % 0.0 in /  0 mm 56.0 W/m2 SCT
17:16 11.1 °F /  -11.6 °C 8.5 °F /  -13.1 °C 1018.5 in /  34486.4 hPa Calm     84 % 0.0 in /  0 mm 51.0 W/m2 SCT
17:21 11.1 °F /  -11.6 °C 8.5 °F /  -13.1 °C 1018.5 in /  34486.4 hPa North 13.0 mph /  20.9 km/h 13.0 mph /  20.9 km/h 84 % 0.0 in /  0 mm 47.0 W/m2 SCT
17:26 11.1 °F /  -11.6 °C 8.5 °F /  -13.1 °C 1018.5 in /  34486.4 hPa Calm     84 % 0.0 in /  0 mm 37.0 W/m2 BKN
17:31 10.6 °F /  -11.9 °C 7.9 °F /  -13.4 °C 1018.5 in /  34486.4 hPa Calm     84 % 0.0 in /  0 mm 26.0 W/m2 BKN
17:36 10.6 °F /  -11.9 °C 8.1 °F /  -13.3 °C 1018.5 in /  34486.4 hPa Calm     85 % 0.0 in /  0 mm 21.0 W/m2 BKN
17:41 10.6 °F /  -11.9 °C 8.1 °F /  -13.3 °C 1018.2 in /  34476.3 hPa Calm     85 % 0.0 in /  0 mm 19.0 W/m2 BKN
17:46 10.6 °F /  -11.9 °C 8.1 °F /  -13.3 °C 1018.2 in /  34476.3 hPa Calm     85 % 0.0 in /  0 mm 14.0 W/m2 BKN
17:51 10.6 °F /  -11.9 °C 8.1 °F /  -13.3 °C 1018.2 in /  34476.3 hPa Calm     85 % 0.0 in /  0 mm 11.0 W/m2 BKN
17:56 10.0 °F /  -12.2 °C 7.8 °F /  -13.4 °C 1018.5 in /  34486.4 hPa Calm     86 % 0.0 in /  0 mm 7.0 W/m2 BKN
18:01 10.0 °F /  -12.2 °C 7.8 °F /  -13.4 °C 1018.5 in /  34486.4 hPa Calm     86 % 0.0 in /  0 mm 5.0 W/m2 OVC
18:06 10.0 °F /  -12.2 °C 7.9 °F /  -13.4 °C 1018.5 in /  34486.4 hPa Calm     87 % 0.0 in /  0 mm 0.0 W/m2 OVC
18:17 9.4 °F /  -12.6 °C 7.4 °F /  -13.7 °C 1018.5 in /  34486.4 hPa Calm     87 % 0.0 in /  0 mm 0.0 W/m2 CLR
18:22 9.4 °F /  -12.6 °C 7.4 °F /  -13.7 °C 1018.5 in /  34486.4 hPa Calm     87 % 0.0 in /  0 mm 0.0 W/m2 CLR
18:27 9.4 °F /  -12.6 °C 7.4 °F /  -13.7 °C 1018.5 in /  34486.4 hPa Calm     87 % 0.0 in /  0 mm 0.0 W/m2 CLR
18:32 8.9 °F /  -12.8 °C 6.8 °F /  -14 °C 1018.5 in /  34486.4 hPa Calm     87 % 0.0 in /  0 mm 0.0 W/m2 CLR
18:37 8.9 °F /  -12.8 °C 6.8 °F /  -14 °C 1018.5 in /  34486.4 hPa Calm     87 % 0.0 in /  0 mm 0.0 W/m2 CLR
18:42 8.9 °F /  -12.8 °C 6.8 °F /  -14 °C 1018.5 in /  34486.4 hPa Calm     87 % 0.0 in /  0 mm 0.0 W/m2 CLR
18:47 8.9 °F /  -12.8 °C 6.8 °F /  -14 °C 1018.5 in /  34486.4 hPa Calm     87 % 0.0 in /  0 mm 0.0 W/m2 CLR
18:52 8.9 °F /  -12.8 °C 7.0 °F /  -13.9 °C 1018.5 in /  34486.4 hPa Calm     88 % 0.0 in /  0 mm 0.0 W/m2 CLR
18:57 8.9 °F /  -12.8 °C 7.0 °F /  -13.9 °C 1018.5 in /  34486.4 hPa Calm     88 % 0.0 in /  0 mm 0.0 W/m2 CLR
19:02 8.9 °F /  -12.8 °C 7.0 °F /  -13.9 °C 1018.5 in /  34486.4 hPa Calm     88 % 0.0 in /  0 mm 0.0 W/m2 CLR
19:07 8.9 °F /  -12.8 °C 7.0 °F /  -13.9 °C 1018.5 in /  34486.4 hPa Calm     88 % 0.0 in /  0 mm 0.0 W/m2 CLR
19:12 8.9 °F /  -12.8 °C 7.0 °F /  -13.9 °C 1018.5 in /  34486.4 hPa Calm     88 % 0.0 in /  0 mm 0.0 W/m2 CLR
19:17 8.9 °F /  -12.8 °C 7.0 °F /  -13.9 °C 1018.5 in /  34486.4 hPa Calm     88 % 0.0 in /  0 mm 0.0 W/m2 CLR
19:22 8.3 °F /  -13.2 °C 6.4 °F /  -14.2 °C 1018.8 in /  34496.6 hPa Calm     88 % 0.0 in /  0 mm 0.0 W/m2 CLR
19:27 8.3 °F /  -13.2 °C 6.4 °F /  -14.2 °C 1018.8 in /  34496.6 hPa Calm     88 % 0.0 in /  0 mm 0.0 W/m2 CLR
19:33 8.3 °F /  -13.2 °C 6.4 °F /  -14.2 °C 1018.5 in /  34486.4 hPa Calm     88 % 0.0 in /  0 mm 0.0 W/m2 CLR
19:38 8.3 °F /  -13.2 °C 6.6 °F /  -14.1 °C 1018.8 in /  34496.6 hPa Calm     89 % 0.0 in /  0 mm 0.0 W/m2 CLR
19:43 8.3 °F /  -13.2 °C 6.4 °F /  -14.2 °C 1018.8 in /  34496.6 hPa Calm     88 % 0.0 in /  0 mm 0.0 W/m2 CLR
19:48 8.3 °F /  -13.2 °C 6.4 °F /  -14.2 °C 1018.8 in /  34496.6 hPa Calm     88 % 0.0 in /  0 mm 0.0 W/m2 CLR
19:53 8.9 °F /  -12.8 °C 7.2 °F /  -13.8 °C 1018.8 in /  34496.6 hPa Calm     89 % 0.0 in /  0 mm 0.0 W/m2 CLR
19:58 8.9 °F /  -12.8 °C 7.2 °F /  -13.8 °C 1018.8 in /  34496.6 hPa NNW 14.8 mph /  23.8 km/h 14.8 mph /  23.8 km/h 89 % 0.0 in /  0 mm 0.0 W/m2 CLR
20:03 8.9 °F /  -12.8 °C 7.2 °F /  -13.8 °C 1018.8 in /  34496.6 hPa NNW 4.8 mph /  7.7 km/h 4.8 mph /  7.7 km/h 89 % 0.0 in /  0 mm 0.0 W/m2 CLR
20:08 9.4 °F /  -12.6 °C 7.7 °F /  -13.5 °C 1018.8 in /  34496.6 hPa North 18.5 mph /  29.8 km/h 18.5 mph /  29.8 km/h 89 % 0.0 in /  0 mm 0.0 W/m2 CLR
20:13 9.4 °F /  -12.6 °C 7.7 °F /  -13.5 °C 1019.2 in /  34510.1 hPa NNW 18.5 mph /  29.8 km/h 18.5 mph /  29.8 km/h 89 % 0.0 in /  0 mm 0.0 W/m2 CLR
20:18 9.4 °F /  -12.6 °C 7.7 °F /  -13.5 °C 1019.2 in /  34510.1 hPa NNW 18.5 mph /  29.8 km/h 18.5 mph /  29.8 km/h 89 % 0.0 in /  0 mm 0.0 W/m2 CLR
20:23 9.4 °F /  -12.6 °C 7.7 °F /  -13.5 °C 1019.2 in /  34510.1 hPa North 18.5 mph /  29.8 km/h 18.5 mph /  29.8 km/h 89 % 0.0 in /  0 mm 0.0 W/m2 CLR
20:28 9.4 °F /  -12.6 °C 7.7 °F /  -13.5 °C 1019.2 in /  34510.1 hPa North 18.5 mph /  29.8 km/h 18.5 mph /  29.8 km/h 89 % 0.0 in /  0 mm 0.0 W/m2 CLR
20:33 9.4 °F /  -12.6 °C 7.9 °F /  -13.4 °C 1018.8 in /  34496.6 hPa NNW 20.9 mph /  33.6 km/h 20.9 mph /  33.6 km/h 90 % 0.0 in /  0 mm 0.0 W/m2 CLR
20:38 9.4 °F /  -12.6 °C 7.7 °F /  -13.5 °C 1019.2 in /  34510.1 hPa NNW 18.5 mph /  29.8 km/h 18.5 mph /  29.8 km/h 89 % 0.0 in /  0 mm 0.0 W/m2 CLR
20:43 9.4 °F /  -12.6 °C 7.9 °F /  -13.4 °C 1019.2 in /  34510.1 hPa North 22.2 mph /  35.7 km/h 22.2 mph /  35.7 km/h 90 % 0.0 in /  0 mm 0.0 W/m2 CLR
20:48 9.4 °F /  -12.6 °C 7.9 °F /  -13.4 °C 1019.2 in /  34510.1 hPa NNW 18.5 mph /  29.8 km/h 18.5 mph /  29.8 km/h 90 % 0.0 in /  0 mm 0.0 W/m2 CLR
20:53 9.4 °F /  -12.6 °C 7.9 °F /  -13.4 °C 1019.2 in /  34510.1 hPa North 18.5 mph /  29.8 km/h 18.5 mph /  29.8 km/h 90 % 0.0 in /  0 mm 0.0 W/m2 CLR
20:58 9.4 °F /  -12.6 °C 7.9 °F /  -13.4 °C 1018.8 in /  34496.6 hPa NNW 18.5 mph /  29.8 km/h 18.5 mph /  29.8 km/h 90 % 0.0 in /  0 mm 0.0 W/m2 CLR
21:03 9.4 °F /  -12.6 °C 7.9 °F /  -13.4 °C 1018.8 in /  34496.6 hPa NNW 14.8 mph /  23.8 km/h 14.8 mph /  23.8 km/h 90 % 0.0 in /  0 mm 0.0 W/m2 CLR
21:08 9.4 °F /  -12.6 °C 7.9 °F /  -13.4 °C 1018.8 in /  34496.6 hPa North 16.7 mph /  26.9 km/h 16.7 mph /  26.9 km/h 90 % 0.0 in /  0 mm 0.0 W/m2 CLR
21:13 9.4 °F /  -12.6 °C 7.9 °F /  -13.4 °C 1018.8 in /  34496.6 hPa NNW 13.0 mph /  20.9 km/h 13.0 mph /  20.9 km/h 90 % 0.0 in /  0 mm 0.0 W/m2 CLR
21:18 9.4 °F /  -12.6 °C 7.9 °F /  -13.4 °C 1018.8 in /  34496.6 hPa North 14.8 mph /  23.8 km/h 14.8 mph /  23.8 km/h 90 % 0.0 in /  0 mm 0.0 W/m2 CLR
21:23 9.4 °F /  -12.6 °C 7.9 °F /  -13.4 °C 1018.8 in /  34496.6 hPa NNW 9.7 mph /  15.6 km/h 9.7 mph /  15.6 km/h 90 % 0.0 in /  0 mm 0.0 W/m2 CLR
21:28 9.4 °F /  -12.6 °C 7.9 °F /  -13.4 °C 1018.8 in /  34496.6 hPa North 13.0 mph /  20.9 km/h 13.0 mph /  20.9 km/h 90 % 0.0 in /  0 mm 0.0 W/m2 CLR
21:33 9.4 °F /  -12.6 °C 7.9 °F /  -13.4 °C 1018.8 in /  34496.6 hPa NNW 14.8 mph /  23.8 km/h 14.8 mph /  23.8 km/h 90 % 0.0 in /  0 mm 0.0 W/m2 CLR
21:38 9.4 °F /  -12.6 °C 7.9 °F /  -13.4 °C 1018.8 in /  34496.6 hPa Calm     90 % 0.0 in /  0 mm 0.0 W/m2 CLR
21:43 9.4 °F /  -12.6 °C 7.9 °F /  -13.4 °C 1018.8 in /  34496.6 hPa Calm     90 % 0.0 in /  0 mm 0.0 W/m2 CLR
21:48 9.4 °F /  -12.6 °C 7.9 °F /  -13.4 °C 1018.5 in /  34486.4 hPa Calm     90 % 0.0 in /  0 mm 0.0 W/m2 CLR
21:53 9.4 °F /  -12.6 °C 8.1 °F /  -13.3 °C 1018.8 in /  34496.6 hPa Calm     91 % 0.0 in /  0 mm 0.0 W/m2 CLR
21:58 9.4 °F /  -12.6 °C 8.1 °F /  -13.3 °C 1018.8 in /  34496.6 hPa Calm     91 % 0.0 in /  0 mm 0.0 W/m2 CLR
22:03 9.4 °F /  -12.6 °C 8.1 °F /  -13.3 °C 1018.5 in /  34486.4 hPa Calm     91 % 0.0 in /  0 mm 0.0 W/m2 CLR
22:08 9.4 °F /  -12.6 °C 8.1 °F /  -13.3 °C 1018.5 in /  34486.4 hPa North 14.8 mph /  23.8 km/h 14.8 mph /  23.8 km/h 91 % 0.0 in /  0 mm 0.0 W/m2 CLR
22:13 9.4 °F /  -12.6 °C 8.1 °F /  -13.3 °C 1018.5 in /  34486.4 hPa NNW 16.1 mph /  25.9 km/h 16.1 mph /  25.9 km/h 91 % 0.0 in /  0 mm 0.0 W/m2 CLR
22:18 9.4 °F /  -12.6 °C 8.1 °F /  -13.3 °C 1018.5 in /  34486.4 hPa North 18.5 mph /  29.8 km/h 18.5 mph /  29.8 km/h 91 % 0.0 in /  0 mm 0.0 W/m2 CLR
22:23 9.4 °F /  -12.6 °C 8.1 °F /  -13.3 °C 1018.5 in /  34486.4 hPa North 14.8 mph /  23.8 km/h 14.8 mph /  23.8 km/h 91 % 0.3 in /  7.62 mm 0.0 W/m2 RA
22:28 9.4 °F /  -12.6 °C 8.1 °F /  -13.3 °C 1018.5 in /  34486.4 hPa North 18.5 mph /  29.8 km/h 18.5 mph /  29.8 km/h 91 % 0.5 in /  12.7 mm 0.0 W/m2 RA
22:33 8.9 °F /  -12.8 °C 7.5 °F /  -13.6 °C 1018.5 in /  34486.4 hPa North 18.5 mph /  29.8 km/h 18.5 mph /  29.8 km/h 91 % 1.0 in /  25.4 mm 0.0 W/m2 RA
22:38 8.9 °F /  -12.8 °C 7.5 °F /  -13.6 °C 1018.5 in /  34486.4 hPa North 13.0 mph /  20.9 km/h 13.0 mph /  20.9 km/h 91 % 1.5 in /  38.1 mm 0.0 W/m2 RA
22:43 8.9 °F /  -12.8 °C 7.5 °F /  -13.6 °C 1018.5 in /  34486.4 hPa North 20.4 mph /  32.8 km/h 20.4 mph /  32.8 km/h 91 % 2.0 in /  50.8 mm 0.0 W/m2 RA
22:48 8.9 °F /  -12.8 °C 7.5 °F /  -13.6 °C 1018.5 in /  34486.4 hPa NNW 16.7 mph /  26.9 km/h 16.7 mph /  26.9 km/h 91 % 2.3 in /  58.42 mm 0.0 W/m2 RA
22:53 8.9 °F /  -12.8 °C 7.5 °F /  -13.6 °C 1018.5 in /  34486.4 hPa NNW 16.7 mph /  26.9 km/h 16.7 mph /  26.9 km/h 91 % 2.5 in /  63.5 mm 0.0 W/m2 RA
22:58 8.9 °F /  -12.8 °C 7.5 °F /  -13.6 °C 1018.5 in /  34486.4 hPa North 16.7 mph /  26.9 km/h 16.7 mph /  26.9 km/h 91 % 2.8 in /  71.12 mm 0.0 W/m2 RA
23:03 8.9 °F /  -12.8 °C 7.5 °F /  -13.6 °C 1018.5 in /  34486.4 hPa North 13.0 mph /  20.9 km/h 13.0 mph /  20.9 km/h 91 % 3.0 in /  76.2 mm 0.0 W/m2 RA
23:08 8.9 °F /  -12.8 °C 7.5 °F /  -13.6 °C 1018.5 in /  34486.4 hPa North 16.7 mph /  26.9 km/h 16.7 mph /  26.9 km/h 91 % 3.3 in /  83.82 mm 0.0 W/m2 RA
23:13 8.9 °F /  -12.8 °C 7.7 °F /  -13.5 °C 1018.5 in /  34486.4 hPa North 16.7 mph /  26.9 km/h 16.7 mph /  26.9 km/h 92 % 3.3 in /  83.82 mm 0.0 W/m2 RA
23:18 8.9 °F /  -12.8 °C 7.7 °F /  -13.5 °C 1018.5 in /  34486.4 hPa NNW 16.7 mph /  26.9 km/h 16.7 mph /  26.9 km/h 92 % 3.6 in /  91.44 mm 0.0 W/m2 RA
23:23 8.9 °F /  -12.8 °C 7.7 °F /  -13.5 °C 1018.5 in /  34486.4 hPa North 14.8 mph /  23.8 km/h 14.8 mph /  23.8 km/h 92 % 3.6 in /  91.44 mm 0.0 W/m2 RA
23:28 8.9 °F /  -12.8 °C 7.5 °F /  -13.6 °C 1018.5 in /  34486.4 hPa NNW 18.5 mph /  29.8 km/h 18.5 mph /  29.8 km/h 91 % 3.3 in /  83.82 mm 0.0 W/m2 RA
23:33 8.9 °F /  -12.8 °C 7.5 °F /  -13.6 °C 1018.5 in /  34486.4 hPa NNW 13.0 mph /  20.9 km/h 13.0 mph /  20.9 km/h 91 % 3.0 in /  76.2 mm 0.0 W/m2
23:38 8.9 °F /  -12.8 °C 7.5 °F /  -13.6 °C 1018.5 in /  34486.4 hPa NNW 16.7 mph /  26.9 km/h 16.7 mph /  26.9 km/h 91 % 2.3 in /  58.42 mm 0.0 W/m2 CLR
23:43 8.9 °F /  -12.8 °C 7.5 °F /  -13.6 °C 1018.5 in /  34486.4 hPa North 17.7 mph /  28.5 km/h 17.7 mph /  28.5 km/h 91 % 2.0 in /  50.8 mm 0.0 W/m2 CLR
23:48 8.9 °F /  -12.8 °C 7.5 °F /  -13.6 °C 1018.8 in /  34496.6 hPa North 18.5 mph /  29.8 km/h 18.5 mph /  29.8 km/h 91 % 2.0 in /  50.8 mm 0.0 W/m2 RA
23:53 8.9 °F /  -12.8 °C 7.5 °F /  -13.6 °C 1018.8 in /  34496.6 hPa North 22.2 mph /  35.7 km/h 22.2 mph /  35.7 km/h 91 % 1.5 in /  38.1 mm 0.0 W/m2
23:58 8.9 °F /  -12.8 °C 7.5 °F /  -13.6 °C 1018.5 in /  34486.4 hPa North 24.1 mph /  38.8 km/h 24.1 mph /  38.8 km/h 91 % 1.5 in /  38.1 mm 0.0 W/m2 CLR
Lo Temps de Massalio
Compliments of Weather Underground - 1.25 mb